Time;durP1;ratioP1;P1;durP2;ratioP2;P2;SDS_P1;SDS_P2;PMS_P1;PMS_P2;Temp;Humidity;BMP_temperature;BMP_pressure;BME280_temperature;BME280_humidity;BME280_pressure;Samples;Min_cycle;Max_cycle;Signal;HPM_P1;HPM_P2
2021/06/26 00:02:12;;;;;;;6.03;2.80;;;24.70;62.40;;;;;;5170996;28;20046;-64
2021/06/26 00:04:45;;;;;;;4.33;2.63;;;24.70;62.50;;;;;;5183581;28;20048;-67
2021/06/26 00:07:17;;;;;;;2.47;2.27;;;24.70;62.50;;;;;;5189917;28;20045;-67
2021/06/26 00:09:50;;;;;;;2.47;2.28;;;24.70;62.50;;;;;;5184563;28;20481;-68
2021/06/26 00:12:23;;;;;;;5.65;2.47;;;24.70;62.50;;;;;;5182358;28;20057;-66
2021/06/26 00:14:55;;;;;;;4.70;2.40;;;24.70;62.50;;;;;;5183872;28;20064;-67
2021/06/26 00:17:28;;;;;;;4.05;2.72;;;24.70;62.60;;;;;;5188720;28;20049;-68
2021/06/26 00:20:00;;;;;;;3.25;2.20;;;24.70;62.60;;;;;;5185171;28;20061;-68
2021/06/26 00:22:33;;;;;;;4.97;2.40;;;24.70;62.60;;;;;;5192821;28;20046;-67
2021/06/26 00:25:05;;;;;;;2.85;2.13;;;24.70;62.60;;;;;;5188222;28;20792;-66
2021/06/26 00:27:38;;;;;;;3.23;2.30;;;24.60;62.50;;;;;;5187913;28;20072;-67
2021/06/26 00:30:11;;;;;;;3.97;2.30;;;24.60;62.60;;;;;;5189028;28;20054;-66
2021/06/26 00:32:44;;;;;;;5.30;2.55;;;24.60;62.60;;;;;;5188095;28;20045;-68
2021/06/26 00:35:17;;;;;;;;;;;24.60;62.60;;;;;;5193614;28;20065;-66
2021/06/26 00:37:49;;;;;;;2.75;2.20;;;24.50;62.50;;;;;;5190562;28;20323;-67
2021/06/26 00:40:22;;;;;;;2.53;2.05;;;24.60;62.60;;;;;;5190111;28;20056;-67
2021/06/26 00:42:54;;;;;;;4.50;1.98;;;24.60;62.60;;;;;;5201591;28;20064;-66
2021/06/26 00:45:27;;;;;;;3.50;2.63;;;24.60;62.60;;;;;;5187403;28;20049;-68
2021/06/26 00:47:59;;;;;;;3.03;2.40;;;24.60;62.60;;;;;;5185641;28;20485;-68
2021/06/26 00:50:32;;;;;;;3.03;1.85;;;24.60;62.60;;;;;;5189002;28;20056;-66
2021/06/26 00:53:05;;;;;;;5.03;2.30;;;24.60;62.50;;;;;;5186110;28;20862;-66
2021/06/26 00:55:38;;;;;;;5.45;2.30;;;24.60;62.50;;;;;;5186725;28;20056;-68
2021/06/26 00:58:10;;;;;;;4.07;2.10;;;24.60;62.40;;;;;;5201034;28;20068;-67
2021/06/26 01:00:43;;;;;;;5.20;2.30;;;24.60;62.40;;;;;;5188478;28;20690;-66
2021/06/26 01:03:15;;;;;;;3.63;2.22;;;24.60;62.40;;;;;;5185083;28;20053;-68
2021/06/26 01:05:49;;;;;;;4.82;2.20;;;24.60;62.40;;;;;;5188025;28;20054;-67
2021/06/26 01:08:23;;;;;;;3.38;1.90;;;24.50;62.30;;;;;;5173543;28;20328;-66
2021/06/26 01:10:55;;;;;;;1.98;1.80;;;24.60;62.40;;;;;;5186655;28;20062;-68
2021/06/26 01:13:28;;;;;;;2.58;2.03;;;24.60;62.30;;;;;;5186896;28;20057;-67
2021/06/26 01:16:01;;;;;;;3.10;2.45;;;24.50;62.20;;;;;;5184135;28;20565;-67
2021/06/26 01:18:33;;;;;;;5.10;2.25;;;24.50;62.20;;;;;;5189868;28;20417;-68
2021/06/26 01:21:06;;;;;;;2.60;2.00;;;24.50;62.20;;;;;;5185182;28;20853;-67
2021/06/26 01:23:53;;;;;;;4.60;2.22;;;24.50;62.20;;;;;;5185576;28;20053;-67
2021/06/26 01:26:31;;;;;;;3.55;2.10;;;24.50;62.20;;;;;;5186878;28;20057;-68
2021/06/26 01:29:09;;;;;;;2.47;1.90;;;24.50;62.20;;;;;;5183482;28;20045;-64
2021/06/26 01:31:42;;;;;;;4.07;1.92;;;24.50;62.10;;;;;;5184356;28;20045;-67
2021/06/26 01:34:14;;;;;;;5.63;2.22;;;24.50;62.10;;;;;;5186860;28;20422;-67
2021/06/26 01:36:47;;;;;;;4.35;2.00;;;24.50;62.20;;;;;;5186031;28;23088;-68
2021/06/26 01:39:19;;;;;;;2.55;2.13;;;24.50;62.10;;;;;;5189085;28;20045;-67
2021/06/26 01:41:52;;;;;;;6.93;2.00;;;24.50;62.10;;;;;;5187053;28;20049;-67
2021/06/26 01:44:24;;;;;;;3.83;2.13;;;24.50;62.10;;;;;;5186224;28;20047;-67
2021/06/26 01:46:57;;;;;;;3.65;1.92;;;24.50;62.00;;;;;;5175032;28;20057;-68
2021/06/26 01:49:29;;;;;;;4.43;1.93;;;24.50;61.90;;;;;;5186101;28;20053;-67
2021/06/26 01:52:03;;;;;;;3.78;2.10;;;24.50;61.80;;;;;;5182848;28;20049;-67
2021/06/26 01:54:38;;;;;;;7.15;1.90;;;24.50;61.80;;;;;;5189606;28;20056;-67
2021/06/26 01:57:11;;;;;;;3.85;1.88;;;24.50;61.70;;;;;;5184700;28;20053;-68
2021/06/26 01:59:43;;;;;;;2.60;1.70;;;24.50;61.70;;;;;;5188449;28;20429;-67
2021/06/26 02:02:16;;;;;;;4.07;1.80;;;24.50;61.70;;;;;;5183829;28;20065;-68
2021/06/26 02:04:48;;;;;;;4.57;1.75;;;24.50;61.70;;;;;;5189910;28;20053;-64
2021/06/26 02:07:21;;;;;;;1.98;1.63;;;24.40;61.70;;;;;;5184911;28;20428;-66
2021/06/26 02:09:53;;;;;;;2.70;1.85;;;24.40;61.70;;;;;;5182266;28;20057;-67
2021/06/26 02:12:26;;;;;;;4.95;2.00;;;24.40;61.60;;;;;;5185167;28;20057;-67
2021/06/26 02:14:59;;;;;;;3.67;1.90;;;24.50;61.60;;;;;;5189598;28;20054;-67
2021/06/26 02:17:31;;;;;;;6.05;1.73;;;24.40;61.60;;;;;;5185137;28;20079;-67
2021/06/26 02:20:06;;;;;;;2.45;1.73;;;24.40;61.60;;;;;;5182874;28;20335;-67
2021/06/26 02:22:38;;;;;;;3.20;1.83;;;24.40;61.60;;;;;;5180214;28;20059;-68
2021/06/26 02:25:11;;;;;;;2.95;1.80;;;24.50;61.60;;;;;;5175660;28;20761;-64
2021/06/26 02:27:45;;;;;;;2.95;1.88;;;24.50;61.60;;;;;;5183076;28;20053;-66
2021/06/26 02:30:18;;;;;;;;;;;24.40;61.30;;;;;;5180644;28;20138;-67
2021/06/26 02:32:50;;;;;;;3.97;1.98;;;24.40;61.20;;;;;;5178489;28;20479;-67
2021/06/26 02:35:23;;;;;;;5.35;2.00;;;24.40;61.30;;;;;;5179428;28;20662;-67
2021/06/26 02:37:55;;;;;;;3.70;1.83;;;24.40;61.30;;;;;;5183436;28;20058;-65
2021/06/26 02:40:28;;;;;;;5.00;2.20;;;24.40;61.20;;;;;;5183710;28;20060;-67
2021/06/26 02:43:07;;;;;;;7.05;1.95;;;24.40;61.10;;;;;;5173497;28;20057;-67
2021/06/26 02:45:40;;;;;;;6.13;2.60;;;24.40;61.00;;;;;;5178315;28;20054;-64
2021/06/26 02:48:13;;;;;;;3.13;2.13;;;24.30;60.90;;;;;;5186308;28;20057;-65
2021/06/26 02:50:46;;;;;;;3.80;1.88;;;24.40;60.90;;;;;;5182923;28;20042;-65
2021/06/26 02:53:18;;;;;;;7.05;2.30;;;24.30;60.80;;;;;;5179193;28;20064;-68
2021/06/26 02:55:55;;;;;;;3.63;1.73;;;24.30;60.70;;;;;;5183673;28;20054;-66
2021/06/26 02:58:29;;;;;;;2.92;1.80;;;24.30;60.60;;;;;;5161400;28;20056;-67
2021/06/26 03:01:01;;;;;;;2.45;2.10;;;24.30;60.60;;;;;;5184769;28;20517;-68
2021/06/26 03:03:34;;;;;;;7.87;1.83;;;24.30;60.50;;;;;;5187094;28;20418;-67
2021/06/26 03:06:07;;;;;;;2.95;1.70;;;24.30;60.50;;;;;;5185178;28;20319;-65
2021/06/26 03:08:39;;;;;;;6.13;2.17;;;24.30;60.40;;;;;;5184134;28;20061;-66
2021/06/26 03:11:12;;;;;;;5.15;1.88;;;24.30;60.30;;;;;;5184976;28;20064;-67
2021/06/26 03:13:44;;;;;;;2.72;1.67;;;24.30;60.20;;;;;;5186071;28;20057;-67
2021/06/26 03:16:17;;;;;;;4.57;2.10;;;24.30;60.20;;;;;;5196306;28;20068;-67
2021/06/26 03:18:49;;;;;;;4.35;1.80;;;24.30;60.20;;;;;;5188156;28;20518;-67
2021/06/26 03:21:22;;;;;;;3.42;1.80;;;24.30;60.20;;;;;;5190197;28;20097;-66
2021/06/26 03:23:54;;;;;;;2.17;1.73;;;24.30;60.20;;;;;;5189304;28;20053;-67
2021/06/26 03:26:27;;;;;;;2.78;2.13;;;24.30;60.10;;;;;;5188822;28;20395;-66
2021/06/26 03:29:00;;;;;;;1.73;1.63;;;24.30;60.10;;;;;;5188876;28;20069;-67
2021/06/26 03:31:33;;;;;;;2.08;1.58;;;24.30;59.90;;;;;;5192219;28;20065;-66
2021/06/26 03:34:05;;;;;;;5.05;2.05;;;24.30;59.90;;;;;;5185807;28;20057;-67
2021/06/26 03:36:38;;;;;;;2.45;1.73;;;24.20;59.80;;;;;;5188311;28;20612;-67
2021/06/26 03:39:11;;;;;;;5.77;1.90;;;24.20;59.80;;;;;;5191771;28;20053;-67
2021/06/26 03:41:43;;;;;;;4.07;2.43;;;24.20;59.90;;;;;;5185106;28;20310;-67
2021/06/26 03:44:16;;;;;;;3.70;1.77;;;24.20;59.90;;;;;;5189200;28;20433;-67
2021/06/26 03:46:48;;;;;;;3.05;1.95;;;24.30;59.90;;;;;;5183336;28;20053;-66
2021/06/26 03:49:21;;;;;;;2.57;1.60;;;24.20;59.80;;;;;;5187125;28;20050;-66
2021/06/26 03:51:53;;;;;;;6.53;1.80;;;24.20;59.90;;;;;;5186001;28;20054;-66
2021/06/26 03:54:26;;;;;;;8.00;1.77;;;24.20;59.90;;;;;;5186082;28;20080;-67
2021/06/26 03:57:00;;;;;;;2.90;1.60;;;24.20;59.90;;;;;;5187981;28;20053;-65
2021/06/26 03:59:32;;;;;;;5.30;1.90;;;24.20;60.00;;;;;;5181775;28;20050;-67
2021/06/26 04:02:08;;;;;;;3.88;1.70;;;24.20;59.90;;;;;;5185082;28;20068;-67
2021/06/26 04:04:40;;;;;;;4.32;1.70;;;24.20;59.90;;;;;;5180889;28;20068;-67
2021/06/26 04:07:14;;;;;;;3.20;1.45;;;24.20;60.00;;;;;;5185596;28;20068;-67
2021/06/26 04:09:46;;;;;;;5.38;2.28;;;24.20;60.00;;;;;;5205148;28;20596;-67
2021/06/26 04:12:19;;;;;;;5.37;2.43;;;24.20;59.90;;;;;;5187659;28;20045;-67
2021/06/26 04:14:51;;;;;;;4.03;1.80;;;24.20;60.00;;;;;;5185598;28;20300;-67
2021/06/26 04:17:24;;;;;;;3.30;1.70;;;24.20;60.00;;;;;;5188139;28;20516;-67
2021/06/26 04:19:56;;;;;;;5.78;1.77;;;24.20;60.00;;;;;;5187093;28;20068;-67
2021/06/26 04:22:30;;;;;;;2.45;1.90;;;24.20;60.00;;;;;;5176130;28;20057;-66
2021/06/26 04:25:04;;;;;;;2.20;1.60;;;24.20;60.00;;;;;;5184211;28;20056;-66
2021/06/26 04:27:36;;;;;;;3.50;1.70;;;24.20;60.00;;;;;;5188566;28;20049;-66
2021/06/26 04:30:10;;;;;;;4.13;1.50;;;24.20;60.10;;;;;;5184278;28;20045;-67
2021/06/26 04:32:42;;;;;;;4.15;1.83;;;24.20;60.10;;;;;;5184707;28;20413;-67
2021/06/26 04:35:19;;;;;;;5.05;1.88;;;24.20;60.10;;;;;;5171448;28;20054;-67
2021/06/26 04:37:52;;;;;;;3.28;1.70;;;24.20;60.40;;;;;;5180392;28;20072;-64
2021/06/26 04:40:24;;;;;;;5.72;1.77;;;24.20;60.70;;;;;;5203535;28;20065;-67
2021/06/26 04:42:57;;;;;;;5.43;1.85;;;24.20;60.80;;;;;;5186738;28;20060;-67
2021/06/26 04:45:29;;;;;;;3.23;1.30;;;24.20;60.90;;;;;;5178402;28;20596;-68
2021/06/26 04:48:02;;;;;;;2.55;1.83;;;24.20;60.90;;;;;;5179107;28;20692;-67
2021/06/26 04:50:35;;;;;;;2.78;1.70;;;24.20;61.00;;;;;;5184445;28;20413;-68
2021/06/26 04:53:08;;;;;;;1.73;1.63;;;24.20;61.00;;;;;;5182763;28;20050;-67
2021/06/26 04:55:41;;;;;;;3.00;1.73;;;24.20;61.00;;;;;;5188444;28;20064;-67
2021/06/26 04:58:13;;;;;;;5.97;1.70;;;24.20;61.00;;;;;;5183298;28;20749;-67
2021/06/26 05:00:50;;;;;;;1.70;1.38;;;24.20;61.00;;;;;;5202147;28;20057;-66
2021/06/26 05:03:23;;;;;;;1.55;1.42;;;24.20;61.10;;;;;;5185216;28;20616;-67
2021/06/26 05:05:58;;;;;;;4.65;1.58;;;24.20;61.10;;;;;;5183070;28;20058;-66
2021/06/26 05:08:31;;;;;;;2.75;1.63;;;24.20;61.10;;;;;;5186213;28;20493;-67
2021/06/26 05:11:03;;;;;;;2.13;1.55;;;24.20;61.10;;;;;;5180056;28;20049;-67
2021/06/26 05:13:36;;;;;;;3.30;1.67;;;24.20;61.10;;;;;;5173576;28;20409;-68
2021/06/26 05:16:09;;;;;;;2.60;1.42;;;24.20;61.10;;;;;;5173790;28;20068;-67
2021/06/26 05:18:42;;;;;;;4.55;2.13;;;24.20;61.10;;;;;;5153107;28;20421;-67
2021/06/26 05:21:15;;;;;;;4.40;1.70;;;24.20;61.10;;;;;;5168657;28;20057;-67
2021/06/26 05:23:47;;;;;;;7.72;2.75;;;24.20;61.20;;;;;;5169430;28;20066;-69
2021/06/26 05:26:20;;;;;;;10.47;3.07;;;24.20;61.10;;;;;;5183546;28;20058;-67
2021/06/26 05:28:53;;;;;;;3.33;2.45;;;24.20;61.20;;;;;;5179993;28;20061;-68
2021/06/26 05:31:25;;;;;;;4.88;2.55;;;24.20;61.20;;;;;;5185796;28;20061;-66
2021/06/26 05:33:58;;;;;;;6.90;2.80;;;24.20;61.50;;;;;;5174128;28;20610;-67
2021/06/26 05:36:30;;;;;;;7.43;3.03;;;24.10;61.50;;;;;;4499763;28;10000795;-68
2021/06/26 05:39:04;;;;;;;4.57;2.80;;;24.20;61.80;;;;;;5182140;28;20061;-68
2021/06/26 05:41:36;;;;;;;5.60;3.30;;;24.10;62.00;;;;;;5175801;28;20084;-66
2021/06/26 05:44:09;;;;;;;4.75;2.78;;;24.00;62.10;;;;;;5172974;28;20048;-67
2021/06/26 05:46:42;;;;;;;9.67;3.87;;;24.00;62.30;;;;;;5170043;28;20068;-67
2021/06/26 05:49:14;;;;;;;8.57;4.38;;;24.00;62.60;;;;;;5177908;28;20053;-68
2021/06/26 05:51:47;;;;;;;12.20;3.83;;;24.00;62.70;;;;;;5180453;28;20953;-68
2021/06/26 05:54:19;;;;;;;6.68;3.05;;;24.00;62.70;;;;;;5183614;28;20514;-70
2021/06/26 05:56:52;;;;;;;9.05;3.35;;;24.10;63.00;;;;;;5182919;28;20045;-69
2021/06/26 05:59:24;;;;;;;10.13;3.22;;;24.10;63.00;;;;;;5181411;28;20441;-68
2021/06/26 06:01:57;;;;;;;7.18;3.40;;;24.10;62.90;;;;;;5165520;28;20061;-68
2021/06/26 06:04:29;;;;;;;4.47;3.30;;;24.10;63.00;;;;;;5189124;28;20425;-68
2021/06/26 06:07:02;;;;;;;10.18;3.22;;;24.10;62.90;;;;;;5178388;28;20061;-69
2021/06/26 06:09:34;;;;;;;9.27;2.70;;;24.20;63.00;;;;;;5179627;28;20076;-67
2021/06/26 06:12:07;;;;;;;6.03;2.70;;;24.20;63.10;;;;;;5168386;28;20049;-67
2021/06/26 06:14:40;;;;;;;7.88;2.80;;;24.20;63.00;;;;;;5173885;28;20064;-67
2021/06/26 06:17:12;;;;;;;5.32;2.70;;;24.20;63.00;;;;;;5156777;28;20052;-68
2021/06/26 06:19:45;;;;;;;4.97;2.67;;;24.20;63.00;;;;;;5169493;28;20461;-67
2021/06/26 06:22:17;;;;;;;5.80;3.00;;;24.20;63.00;;;;;;5154243;28;20309;-67
2021/06/26 06:24:51;;;;;;;6.18;3.72;;;24.20;63.00;;;;;;5167260;28;20062;-68
2021/06/26 06:27:23;;;;;;;;;;;24.20;63.00;;;;;;5169436;28;20358;-67
2021/06/26 06:29:56;;;;;;;9.23;3.75;;;24.20;63.00;;;;;;5170955;28;19925;-68
2021/06/26 06:32:28;;;;;;;9.00;4.07;;;24.20;63.00;;;;;;5188342;28;20052;-67
2021/06/26 06:35:01;;;;;;;9.23;4.33;;;24.20;63.00;;;;;;5180706;28;20062;-71
2021/06/26 06:37:34;;;;;;;9.52;4.18;;;24.20;63.00;;;;;;5174845;28;20320;-69
2021/06/26 06:40:07;;;;;;;;;;;24.30;63.10;;;;;;5189057;28;20068;-69
2021/06/26 06:42:41;;;;;;;9.60;4.47;;;24.20;63.10;;;;;;5188639;28;19925;-69
2021/06/26 06:45:15;;;;;;;6.95;4.32;;;24.30;63.00;;;;;;5188745;28;20411;-69
2021/06/26 06:47:48;;;;;;;7.53;4.15;;;24.30;63.70;;;;;;5187951;28;20453;-70
2021/06/26 06:50:20;;;;;;;7.25;4.50;;;24.30;63.10;;;;;;5189084;28;20063;-71
2021/06/26 06:52:53;;;;;;;7.43;4.28;;;24.30;63.00;;;;;;5207184;28;20052;-71
2021/06/26 06:55:25;;;;;;;9.40;4.15;;;24.30;63.00;;;;;;5191206;28;20049;-67
2021/06/26 06:57:57;;;;;;;6.50;4.15;;;24.30;63.10;;;;;;5180289;28;20058;-67
2021/06/26 07:00:30;;;;;;;5.80;4.35;;;24.30;62.90;;;;;;5201332;28;20383;-69
2021/06/26 07:03:03;;;;;;;6.25;4.35;;;24.30;62.90;;;;;;5202422;28;20564;-67
2021/06/26 07:05:35;;;;;;;5.35;3.80;;;24.40;62.90;;;;;;5179548;28;20042;-68
2021/06/26 07:08:08;;;;;;;5.68;4.00;;;24.40;62.80;;;;;;5182002;28;20061;-67
2021/06/26 07:10:42;;;;;;;10.20;3.88;;;24.40;62.80;;;;;;5186779;28;20053;-69
2021/06/26 07:13:15;;;;;;;6.97;4.40;;;24.40;62.90;;;;;;5190626;28;20510;-68
2021/06/26 07:15:48;;;;;;;6.80;4.40;;;24.40;62.80;;;;;;5192556;28;20064;-69
2021/06/26 07:18:21;;;;;;;6.55;4.13;;;24.40;62.70;;;;;;5189633;28;20807;-68
2021/06/26 07:20:53;;;;;;;26.50;6.28;;;24.40;62.80;;;;;;5166963;28;20072;-68
2021/06/26 07:23:26;;;;;;;8.43;4.13;;;24.40;62.80;;;;;;5189004;28;20057;-68
2021/06/26 07:25:59;;;;;;;10.53;4.27;;;24.40;62.70;;;;;;5187994;28;20052;-70
2021/06/26 07:28:31;;;;;;;7.13;4.45;;;24.40;62.80;;;;;;5178760;28;20049;-67
2021/06/26 07:31:03;;;;;;;6.35;4.47;;;24.40;62.80;;;;;;5179054;28;20120;-68
2021/06/26 07:33:36;;;;;;;4.93;3.90;;;24.40;62.70;;;;;;5187842;28;20045;-67
2021/06/26 07:36:09;;;;;;;;;;;24.40;62.80;;;;;;3793048;28;10000220;-70
2021/06/26 07:38:41;;;;;;;8.63;3.88;;;24.40;62.70;;;;;;5188421;28;19936;-68
2021/06/26 07:41:18;;;;;;;8.98;4.18;;;24.40;62.80;;;;;;5184494;28;20422;-68
2021/06/26 07:43:50;;;;;;;22.20;4.82;;;24.40;62.80;;;;;;5180756;28;20057;-68
2021/06/26 07:46:23;;;;;;;7.97;4.03;;;24.40;63.00;;;;;;5185528;28;20084;-69
2021/06/26 07:48:56;;;;;;;5.50;4.30;;;24.40;63.10;;;;;;5187368;28;20058;-66
2021/06/26 07:51:28;;;;;;;6.97;4.60;;;24.50;63.10;;;;;;5184154;28;20056;-68
2021/06/26 07:54:00;;;;;;;8.35;4.95;;;24.50;63.10;;;;;;5185819;28;20089;-67
2021/06/26 07:56:34;;;;;;;8.32;4.40;;;24.50;63.10;;;;;;5183371;28;20429;-68
2021/06/26 07:59:06;;;;;;;;;;;24.50;63.10;;;;;;5179961;28;20049;-69
2021/06/26 08:01:39;;;;;;;5.90;4.45;;;24.50;63.10;;;;;;5185370;28;19925;-69
2021/06/26 08:04:12;;;;;;;5.82;4.43;;;24.50;63.10;;;;;;5173253;28;20413;-71
2021/06/26 08:06:44;;;;;;;8.35;4.00;;;24.50;63.00;;;;;;5172741;28;20056;-68
2021/06/26 08:09:17;;;;;;;5.45;3.85;;;24.50;63.10;;;;;;5182332;28;20076;-68
2021/06/26 08:11:49;;;;;;;6.75;4.00;;;24.50;63.10;;;;;;5188563;28;20042;-67
2021/06/26 08:14:22;;;;;;;6.70;4.43;;;24.50;63.10;;;;;;5184786;28;20061;-71
2021/06/26 08:16:54;;;;;;;8.80;4.35;;;24.60;63.20;;;;;;5181764;28;20042;-69
2021/06/26 08:19:27;;;;;;;8.67;3.80;;;24.50;63.20;;;;;;5182667;28;20517;-69
2021/06/26 08:21:59;;;;;;;5.55;3.65;;;24.60;63.20;;;;;;5183156;28;20061;-69
2021/06/26 08:24:32;;;;;;;6.73;4.23;;;24.50;63.20;;;;;;5184982;28;20068;-69
2021/06/26 08:27:06;;;;;;;5.65;3.53;;;24.50;63.10;;;;;;5185453;28;20065;-67
2021/06/26 08:29:38;;;;;;;5.50;3.15;;;24.50;63.10;;;;;;5185276;28;20069;-68
2021/06/26 08:32:11;;;;;;;6.00;3.70;;;24.50;62.90;;;;;;5186783;28;20053;-67
2021/06/26 08:34:43;;;;;;;4.40;3.67;;;24.50;62.80;;;;;;5188936;28;20531;-69
2021/06/26 08:37:36;;;;;;;4.85;4.07;;;24.50;62.60;;;;;;5189195;28;20041;-69
2021/06/26 08:40:11;;;;;;;5.75;3.80;;;24.50;62.60;;;;;;5180341;28;20057;-68
2021/06/26 08:42:44;;;;;;;5.50;3.63;;;24.50;62.30;;;;;;5181652;28;20087;-68
2021/06/26 08:45:19;;;;;;;14.18;5.25;;;24.50;62.50;;;;;;5167902;28;20069;-71
2021/06/26 08:47:54;;;;;;;6.90;3.95;;;24.50;62.50;;;;;;5168401;28;20489;-70
2021/06/26 08:50:28;;;;;;;5.47;3.80;;;24.60;62.50;;;;;;5190706;28;20057;-68
2021/06/26 08:53:00;;;;;;;7.97;3.85;;;24.60;62.60;;;;;;5208498;28;20060;-68
2021/06/26 08:55:33;;;;;;;8.73;3.90;;;24.60;62.80;;;;;;5197981;28;20057;-70
2021/06/26 08:58:06;;;;;;;;;;;24.60;62.90;;;;;;5187597;28;20053;-70
2021/06/26 09:00:39;;;;;;;6.47;3.65;;;24.60;62.90;;;;;;5190099;28;19928;-69
2021/06/26 09:03:14;;;;;;;6.00;3.25;;;24.60;63.00;;;;;;5187129;28;20064;-69
2021/06/26 09:05:47;;;;;;;8.15;4.13;;;24.60;63.10;;;;;;5191477;28;20150;-71
2021/06/26 09:08:21;;;;;;;7.13;4.30;;;24.70;63.20;;;;;;5187593;28;20693;-68
2021/06/26 09:10:54;;;;;;;7.65;3.95;;;24.60;63.20;;;;;;5165611;28;20533;-69
2021/06/26 09:13:32;;;;;;;5.82;3.47;;;24.70;63.30;;;;;;5175706;28;20053;-69
2021/06/26 09:16:13;;;;;;;8.23;4.03;;;24.70;63.30;;;;;;5193339;28;20145;-69
2021/06/26 09:18:50;;;;;;;7.47;3.80;;;24.70;63.20;;;;;;5169634;28;20064;-69
2021/06/26 09:21:36;;;;;;;4.32;3.20;;;24.70;63.10;;;;;;5170999;28;20053;-69
2021/06/26 09:24:12;;;;;;;7.80;3.80;;;24.70;63.10;;;;;;5193238;28;20506;-69
2021/06/26 09:27:03;;;;;;;4.55;3.55;;;24.70;63.70;;;;;;5156521;28;20053;-70
2021/06/26 09:29:45;;;;;;;5.82;3.20;;;24.70;63.00;;;;;;5159098;28;20433;-71
2021/06/26 09:32:26;;;;;;;7.32;3.90;;;24.70;63.10;;;;;;5154377;28;20046;-70
2021/06/26 09:34:59;;;;;;;10.18;3.60;;;24.60;62.90;;;;;;5166024;28;20076;-71
2021/06/26 09:37:34;;;;;;;9.25;3.90;;;24.70;63.00;;;;;;5159349;28;20537;-72
2021/06/26 09:40:08;;;;;;;12.75;4.72;;;24.70;62.80;;;;;;5169367;28;20046;-70
2021/06/26 09:42:41;;;;;;;10.15;4.20;;;24.70;62.80;;;;;;5170110;28;20053;-69
2021/06/26 09:45:14;;;;;;;13.63;4.65;;;24.70;62.90;;;;;;5175940;28;20057;-73
2021/06/26 09:47:47;;;;;;;9.45;3.28;;;24.70;62.90;;;;;;5175483;28;20512;-73
2021/06/26 09:50:25;;;;;;;11.02;3.97;;;24.70;63.60;;;;;;5180999;28;20681;-73
2021/06/26 09:53:00;;;;;;;11.55;3.88;;;24.80;63.10;;;;;;5185541;28;20532;-75
2021/06/26 09:55:37;;;;;;;8.38;3.67;;;24.80;63.10;;;;;;5167711;28;20058;-73
2021/06/26 09:58:16;;;;;;;12.20;3.78;;;24.80;63.20;;;;;;5171040;28;20424;-72
2021/06/26 10:00:49;;;;;;;9.20;3.42;;;24.80;63.30;;;;;;5183082;28;20053;-71
2021/06/26 10:03:26;;;;;;;13.98;4.25;;;24.80;64.00;;;;;;5174626;28;20073;-68
2021/06/26 10:05:58;;;;;;;12.88;4.28;;;24.80;63.20;;;;;;5170725;28;20464;-69
2021/06/26 10:08:32;;;;;;;13.13;4.28;;;24.80;63.40;;;;;;5172481;28;20057;-67
2021/06/26 10:11:05;;;;;;;18.40;5.00;;;24.80;63.30;;;;;;5167097;28;20057;-70
2021/06/26 10:13:38;;;;;;;14.50;4.37;;;24.80;63.10;;;;;;5171172;28;20052;-69
2021/06/26 10:16:12;;;;;;;21.58;4.88;;;24.80;63.10;;;;;;5178462;28;20421;-69
2021/06/26 10:18:45;;;;;;;24.52;5.07;;;24.80;63.10;;;;;;5177314;28;20037;-69
2021/06/26 10:21:18;;;;;;;22.58;4.80;;;24.90;63.20;;;;;;5181087;28;20050;-70
2021/06/26 10:23:54;;;;;;;18.07;4.97;;;24.90;63.90;;;;;;5171316;28;20528;-72
2021/06/26 10:26:35;;;;;;;20.48;5.03;;;24.90;63.30;;;;;;5171149;28;20305;-72
2021/06/26 10:29:08;;;;;;;13.40;4.25;;;24.90;63.30;;;;;;5187776;28;20413;-70
2021/06/26 10:31:43;;;;;;;12.70;4.30;;;24.90;63.30;;;;;;5175063;28;20065;-71
2021/06/26 10:34:22;;;;;;;19.63;4.75;;;25.00;63.40;;;;;;5176211;28;20057;-71
2021/06/26 10:36:54;;;;;;;19.17;4.50;;;25.00;63.40;;;;;;5166119;28;20050;-70
2021/06/26 10:39:29;;;;;;;11.30;4.37;;;25.00;63.40;;;;;;5183929;28;20054;-71
2021/06/26 10:42:08;;;;;;;18.77;4.70;;;25.00;63.50;;;;;;5186459;28;20052;-71
2021/06/26 10:44:45;;;;;;;16.98;4.40;;;25.00;63.40;;;;;;5179582;28;20050;-75
2021/06/26 10:47:34;;;;;;;12.70;5.00;;;25.00;63.40;;;;;;5180717;28;20058;-73
2021/06/26 10:50:17;;;;;;;14.00;4.78;;;25.00;63.10;;;;;;5180607;28;21306;-71
2021/06/26 10:52:56;;;;;;;13.18;4.00;;;25.00;62.70;;;;;;5175418;28;20493;-73
2021/06/26 10:55:38;;;;;;;7.72;4.28;;;25.00;62.70;;;;;;5166428;28;20050;-69
2021/06/26 10:58:10;;;;;;;6.93;4.05;;;25.00;62.10;;;;;;5166697;28;20064;-70
2021/06/26 11:00:43;;;;;;;6.93;4.15;;;25.00;61.50;;;;;;5179759;28;20053;-69
2021/06/26 11:03:22;;;;;;;6.95;4.32;;;25.00;61.20;;;;;;5181314;28;20058;-71
2021/06/26 11:05:55;;;;;;;10.02;5.70;;;25.00;61.30;;;;;;5181465;28;20052;-73
2021/06/26 11:08:27;;;;;;;8.35;4.60;;;25.00;61.50;;;;;;5168114;28;20518;-73
2021/06/26 11:11:01;;;;;;;5.68;3.78;;;25.00;62.00;;;;;;5181752;28;20520;-72
2021/06/26 11:13:33;;;;;;;10.65;4.10;;;25.10;61.80;;;;;;5183276;28;20057;-71
2021/06/26 11:16:08;;;;;;;6.00;4.15;;;25.10;61.90;;;;;;5178602;28;20045;-72
2021/06/26 11:18:41;;;;;;;9.02;4.40;;;25.10;61.80;;;;;;5181106;28;20318;-69
2021/06/26 11:21:13;;;;;;;7.85;4.30;;;25.10;62.00;;;;;;5177014;28;20056;-71
2021/06/26 11:23:50;;;;;;;10.95;4.20;;;25.10;62.10;;;;;;5177725;28;21288;-69
2021/06/26 11:26:23;;;;;;;8.85;4.28;;;25.10;62.10;;;;;;5177758;28;20977;-72
2021/06/26 11:28:55;;;;;;;10.50;4.67;;;25.10;62.00;;;;;;5170002;28;20053;-70
2021/06/26 11:31:33;;;;;;;14.60;4.80;;;25.10;61.90;;;;;;5174137;28;20053;-71
2021/06/26 11:34:12;;;;;;;7.85;4.15;;;25.10;61.90;;;;;;5165341;28;20061;-71
2021/06/26 11:37:01;;;;;;;12.60;4.43;;;25.00;61.80;;;;;;5175001;28;20542;-70
2021/06/26 11:39:36;;;;;;;8.48;4.13;;;25.00;61.70;;;;;;5176624;28;20045;-69
2021/06/26 11:42:20;;;;;;;10.32;4.50;;;25.00;61.70;;;;;;5175183;28;20425;-72
2021/06/26 11:44:52;;;;;;;8.70;4.28;;;25.10;61.50;;;;;;5183350;28;20053;-74
2021/06/26 11:47:26;;;;;;;11.45;4.68;;;25.10;61.70;;;;;;5183517;28;20894;-74
2021/06/26 11:49:59;;;;;;;5.95;4.38;;;25.10;61.80;;;;;;5184726;28;20046;-70
2021/06/26 11:52:34;;;;;;;11.70;4.72;;;25.10;61.40;;;;;;5177159;28;20045;-71
2021/06/26 11:55:07;;;;;;;6.07;3.95;;;25.10;61.40;;;;;;5179163;28;20053;-70
2021/06/26 11:57:40;;;;;;;6.15;3.90;;;25.20;61.80;;;;;;5178024;28;20050;-75
2021/06/26 12:00:17;;;;;;;5.78;4.13;;;25.20;61.50;;;;;;5183874;28;20048;-73
2021/06/26 12:02:50;;;;;;;6.25;4.13;;;25.20;61.50;;;;;;5184948;28;20064;-71
2021/06/26 12:05:22;;;;;;;8.35;4.18;;;25.20;61.30;;;;;;5182119;28;20052;-73
2021/06/26 12:08:02;;;;;;;6.17;4.03;;;25.20;61.70;;;;;;5180067;28;20042;-71
2021/06/26 12:10:36;;;;;;;6.30;4.07;;;25.20;61.80;;;;;;5180718;28;20050;-72
2021/06/26 12:13:11;;;;;;;6.30;4.30;;;25.20;62.00;;;;;;5180405;28;20441;-74
2021/06/26 12:15:45;;;;;;;6.25;3.80;;;25.20;61.40;;;;;;5188315;28;20045;-74
2021/06/26 12:18:17;;;;;;;5.05;3.85;;;25.30;61.30;;;;;;5178963;28;20050;-71
2021/06/26 12:20:50;;;;;;;4.45;3.80;;;25.30;60.80;;;;;;5183410;28;20042;-71
2021/06/26 12:23:22;;;;;;;5.75;4.13;;;25.30;61.30;;;;;;5177508;28;20061;-71
2021/06/26 12:25:55;;;;;;;5.60;4.07;;;25.30;61.00;;;;;;5179558;28;20642;-69
2021/06/26 12:28:27;;;;;;;5.25;3.72;;;25.30;60.60;;;;;;5159261;28;20762;-72
2021/06/26 12:31:01;;;;;;;6.93;3.97;;;25.30;60.60;;;;;;5170588;28;20068;-74
2021/06/26 12:33:34;;;;;;;6.10;4.20;;;25.30;60.90;;;;;;5161313;28;20053;-71
2021/06/26 12:36:15;;;;;;;8.27;4.25;;;25.30;61.10;;;;;;5168963;28;20044;-71
2021/06/26 12:38:48;;;;;;;8.07;4.00;;;25.30;61.10;;;;;;5174946;28;20061;-72
2021/06/26 12:41:31;;;;;;;9.50;3.90;;;25.20;61.30;;;;;;5158078;28;20049;-71
2021/06/26 12:44:04;;;;;;;;;;;25.30;61.50;;;;;;5177810;28;20053;-72
2021/06/26 12:46:37;;;;;;;8.93;4.03;;;25.20;61.60;;;;;;5175886;28;19925;-70
2021/06/26 12:49:19;;;;;;;10.23;4.23;;;25.30;61.70;;;;;;5159440;28;20417;-72
2021/06/26 12:51:52;;;;;;;24.15;4.95;;;25.30;62.10;;;;;;5139232;28;20076;-74
2021/06/26 12:54:25;;;;;;;21.30;6.73;;;25.30;62.40;;;;;;5172482;28;20056;-72
2021/06/26 12:56:57;;;;;;;21.88;4.88;;;25.30;62.70;;;;;;5162074;28;20413;-72
2021/06/26 12:59:35;;;;;;;23.02;5.45;;;25.30;62.80;;;;;;5154749;28;21054;-73
2021/06/26 13:02:09;;;;;;;18.88;5.03;;;25.40;63.00;;;;;;5165254;28;20053;-73
2021/06/26 13:04:47;;;;;;;21.35;4.32;;;25.40;63.10;;;;;;5153484;28;20069;-72
2021/06/26 13:07:24;;;;;;;17.75;5.63;;;25.40;63.40;;;;;;5162353;28;20061;-74
2021/06/26 13:10:04;;;;;;;22.42;6.20;;;25.40;63.30;;;;;;5162699;28;20053;-73
2021/06/26 13:12:48;;;;;;;22.58;5.03;;;25.40;63.10;;;;;;5174358;28;20064;-72
2021/06/26 13:15:20;;;;;;;23.13;4.95;;;25.40;62.80;;;;;;5170187;28;20613;-71
2021/06/26 13:17:53;;;;;;;11.13;4.70;;;25.40;62.60;;;;;;5147441;28;20050;-71
2021/06/26 13:20:26;;;;;;;14.65;4.45;;;25.40;62.40;;;;;;5147309;28;21149;-71
2021/06/26 13:22:58;;;;;;;15.40;4.80;;;25.40;62.20;;;;;;5163066;28;20053;-73